sensor_id;sensor_type;location;lat;lon;timestamp;P1;durP1;ratioP1;P2;durP2;ratioP2
23490;SDS011;14683;50.038;8.078;2024-03-17T02:52:37;8.45;;;5.28;;
23490;SDS011;14683;50.038;8.078;2024-03-17T02:55:38;6.57;;;5.55;;
23490;SDS011;14683;50.038;8.078;2024-03-17T02:58:39;7.53;;;5.55;;
23490;SDS011;14683;50.038;8.078;2024-03-17T03:01:40;6.93;;;5.15;;
23490;SDS011;14683;50.038;8.078;2024-03-17T03:04:41;8.25;;;6.30;;
23490;SDS011;14683;50.038;8.078;2024-03-17T03:07:42;8.55;;;5.95;;
23490;SDS011;14683;50.038;8.078;2024-03-17T03:10:46;6.47;;;5.38;;
23490;SDS011;14683;50.038;8.078;2024-03-17T03:13:48;7.97;;;5.40;;
23490;SDS011;14683;50.038;8.078;2024-03-17T03:16:49;6.88;;;5.55;;
23490;SDS011;14683;50.038;8.078;2024-03-17T03:19:50;6.07;;;5.10;;
23490;SDS011;14683;50.038;8.078;2024-03-17T03:22:51;5.20;;;4.70;;
23490;SDS011;14683;50.038;8.078;2024-03-17T03:25:55;8.40;;;5.40;;
23490;SDS011;14683;50.038;8.078;2024-03-17T03:29:00;7.68;;;5.43;;
23490;SDS011;14683;50.038;8.078;2024-03-17T03:32:01;5.13;;;4.57;;
23490;SDS011;14683;50.038;8.078;2024-03-17T03:35:03;8.65;;;5.50;;
23490;SDS011;14683;50.038;8.078;2024-03-17T03:38:05;6.47;;;5.13;;
23490;SDS011;14683;50.038;8.078;2024-03-17T03:41:07;5.88;;;5.00;;
23490;SDS011;14683;50.038;8.078;2024-03-17T03:44:14;8.37;;;5.33;;
23490;SDS011;14683;50.038;8.078;2024-03-17T03:47:15;7.75;;;5.43;;
23490;SDS011;14683;50.038;8.078;2024-03-17T03:50:17;6.88;;;5.82;;
23490;SDS011;14683;50.038;8.078;2024-03-17T03:53:20;6.00;;;5.40;;
23490;SDS011;14683;50.038;8.078;2024-03-17T03:56:21;8.05;;;5.47;;
23490;SDS011;14683;50.038;8.078;2024-03-17T03:59:23;6.38;;;5.25;;
23490;SDS011;14683;50.038;8.078;2024-03-17T04:02:25;7.78;;;5.43;;
23490;SDS011;14683;50.038;8.078;2024-03-17T04:05:31;5.80;;;5.20;;
23490;SDS011;14683;50.038;8.078;2024-03-17T04:08:33;7.25;;;5.32;;
23490;SDS011;14683;50.038;8.078;2024-03-17T04:11:35;6.95;;;5.18;;
23490;SDS011;14683;50.038;8.078;2024-03-17T04:14:36;7.78;;;4.90;;
23490;SDS011;14683;50.038;8.078;2024-03-17T04:17:37;6.20;;;5.47;;
23490;SDS011;14683;50.038;8.078;2024-03-17T04:20:40;7.03;;;5.63;;
23490;SDS011;14683;50.038;8.078;2024-03-17T04:23:41;6.10;;;5.50;;
23490;SDS011;14683;50.038;8.078;2024-03-17T04:26:42;8.10;;;6.00;;
23490;SDS011;14683;50.038;8.078;2024-03-17T04:29:45;9.27;;;6.40;;
23490;SDS011;14683;50.038;8.078;2024-03-17T04:32:48;8.38;;;6.38;;
23490;SDS011;14683;50.038;8.078;2024-03-17T04:35:49;10.65;;;7.25;;
23490;SDS011;14683;50.038;8.078;2024-03-17T04:38:51;10.18;;;8.23;;
23490;SDS011;14683;50.038;8.078;2024-03-17T04:41:52;9.63;;;7.50;;
23490;SDS011;14683;50.038;8.078;2024-03-17T04:44:53;10.48;;;7.93;;
23490;SDS011;14683;50.038;8.078;2024-03-17T04:47:54;10.68;;;7.88;;
23490;SDS011;14683;50.038;8.078;2024-03-17T04:50:55;10.63;;;8.18;;
23490;SDS011;14683;50.038;8.078;2024-03-17T04:53:56;10.63;;;7.40;;
23490;SDS011;14683;50.038;8.078;2024-03-17T04:56:57;11.10;;;7.95;;
23490;SDS011;14683;50.038;8.078;2024-03-17T04:59:59;12.00;;;8.40;;
23490;SDS011;14683;50.038;8.078;2024-03-17T05:03:00;10.25;;;7.63;;
23490;SDS011;14683;50.038;8.078;2024-03-17T05:06:04;13.13;;;7.57;;
23490;SDS011;14683;50.038;8.078;2024-03-17T05:09:06;9.10;;;7.03;;
23490;SDS011;14683;50.038;8.078;2024-03-17T05:12:07;8.55;;;6.63;;
23490;SDS011;14683;50.038;8.078;2024-03-17T05:15:08;8.18;;;6.65;;
23490;SDS011;14683;50.038;8.078;2024-03-17T05:18:10;9.50;;;7.55;;
23490;SDS011;14683;50.038;8.078;2024-03-17T05:21:11;10.75;;;7.85;;
23490;SDS011;14683;50.038;8.078;2024-03-17T05:24:13;9.15;;;7.65;;
23490;SDS011;14683;50.038;8.078;2024-03-17T05:27:14;10.05;;;7.50;;
23490;SDS011;14683;50.038;8.078;2024-03-17T05:30:15;8.95;;;7.78;;
23490;SDS011;14683;50.038;8.078;2024-03-17T05:33:17;11.02;;;7.82;;
23490;SDS011;14683;50.038;8.078;2024-03-17T05:36:19;10.27;;;7.13;;
23490;SDS011;14683;50.038;8.078;2024-03-17T05:39:22;8.07;;;7.00;;
23490;SDS011;14683;50.038;8.078;2024-03-17T05:42:24;9.77;;;8.63;;
23490;SDS011;14683;50.038;8.078;2024-03-17T05:45:25;8.73;;;7.82;;
23490;SDS011;14683;50.038;8.078;2024-03-17T05:48:26;10.65;;;8.50;;
23490;SDS011;14683;50.038;8.078;2024-03-17T05:51:28;11.43;;;9.10;;
23490;SDS011;14683;50.038;8.078;2024-03-17T05:54:29;10.73;;;8.40;;
23490;SDS011;14683;50.038;8.078;2024-03-17T05:57:30;11.65;;;8.57;;
23490;SDS011;14683;50.038;8.078;2024-03-17T06:00:31;10.45;;;7.70;;
23490;SDS011;14683;50.038;8.078;2024-03-17T06:03:33;8.20;;;7.28;;
23490;SDS011;14683;50.038;8.078;2024-03-17T06:06:37;11.13;;;8.30;;
23490;SDS011;14683;50.038;8.078;2024-03-17T06:09:39;11.48;;;8.02;;
23490;SDS011;14683;50.038;8.078;2024-03-17T06:12:40;9.32;;;7.80;;
23490;SDS011;14683;50.038;8.078;2024-03-17T06:15:41;9.45;;;7.68;;
23490;SDS011;14683;50.038;8.078;2024-03-17T06:18:42;10.50;;;8.07;;
23490;SDS011;14683;50.038;8.078;2024-03-17T06:21:43;10.13;;;7.97;;
23490;SDS011;14683;50.038;8.078;2024-03-17T06:24:44;10.63;;;7.93;;
23490;SDS011;14683;50.038;8.078;2024-03-17T06:27:46;11.77;;;8.50;;
23490;SDS011;14683;50.038;8.078;2024-03-17T06:30:57;9.75;;;8.07;;
23490;SDS011;14683;50.038;8.078;2024-03-17T06:34:04;12.02;;;8.88;;
23490;SDS011;14683;50.038;8.078;2024-03-17T06:37:05;10.55;;;8.43;;
23490;SDS011;14683;50.038;8.078;2024-03-17T06:40:07;11.43;;;8.35;;
23490;SDS011;14683;50.038;8.078;2024-03-17T06:43:12;10.63;;;8.23;;
23490;SDS011;14683;50.038;8.078;2024-03-17T06:46:13;12.57;;;9.00;;
23490;SDS011;14683;50.038;8.078;2024-03-17T06:49:14;11.02;;;9.27;;
23490;SDS011;14683;50.038;8.078;2024-03-17T06:52:16;12.30;;;8.63;;
23490;SDS011;14683;50.038;8.078;2024-03-17T06:55:17;13.20;;;10.07;;
23490;SDS011;14683;50.038;8.078;2024-03-17T06:58:18;14.15;;;9.48;;
23490;SDS011;14683;50.038;8.078;2024-03-17T07:01:23;13.55;;;9.60;;
23490;SDS011;14683;50.038;8.078;2024-03-17T07:04:24;13.10;;;10.07;;
23490;SDS011;14683;50.038;8.078;2024-03-17T07:07:28;14.65;;;10.32;;
23490;SDS011;14683;50.038;8.078;2024-03-17T07:10:29;14.77;;;9.60;;
23490;SDS011;14683;50.038;8.078;2024-03-17T07:13:31;15.52;;;9.95;;
23490;SDS011;14683;50.038;8.078;2024-03-17T07:16:33;11.18;;;8.85;;
23490;SDS011;14683;50.038;8.078;2024-03-17T07:19:35;13.65;;;9.05;;
23490;SDS011;14683;50.038;8.078;2024-03-17T07:22:36;14.18;;;9.07;;
23490;SDS011;14683;50.038;8.078;2024-03-17T07:25:38;12.48;;;8.82;;
23490;SDS011;14683;50.038;8.078;2024-03-17T07:28:39;14.50;;;9.15;;
23490;SDS011;14683;50.038;8.078;2024-03-17T07:31:43;13.68;;;9.35;;
23490;SDS011;14683;50.038;8.078;2024-03-17T07:34:44;13.27;;;9.18;;
23490;SDS011;14683;50.038;8.078;2024-03-17T07:37:45;11.82;;;9.55;;
23490;SDS011;14683;50.038;8.078;2024-03-17T07:40:55;12.55;;;9.30;;
23490;SDS011;14683;50.038;8.078;2024-03-17T07:43:59;11.75;;;8.93;;
23490;SDS011;14683;50.038;8.078;2024-03-17T07:47:01;12.93;;;8.55;;
23490;SDS011;14683;50.038;8.078;2024-03-17T07:50:04;12.77;;;8.73;;
23490;SDS011;14683;50.038;8.078;2024-03-17T07:53:06;12.73;;;9.90;;
23490;SDS011;14683;50.038;8.078;2024-03-17T07:56:14;10.32;;;8.30;;
23490;SDS011;14683;50.038;8.078;2024-03-17T07:59:15;12.52;;;8.30;;
23490;SDS011;14683;50.038;8.078;2024-03-17T08:02:18;14.52;;;9.30;;
23490;SDS011;14683;50.038;8.078;2024-03-17T08:05:19;14.02;;;8.80;;
23490;SDS011;14683;50.038;8.078;2024-03-17T08:08:21;13.02;;;8.93;;
23490;SDS011;14683;50.038;8.078;2024-03-17T08:11:22;14.23;;;9.07;;
23490;SDS011;14683;50.038;8.078;2024-03-17T08:14:23;11.68;;;8.32;;
23490;SDS011;14683;50.038;8.078;2024-03-17T08:17:25;14.13;;;9.00;;
23490;SDS011;14683;50.038;8.078;2024-03-17T08:20:26;15.75;;;9.77;;
23490;SDS011;14683;50.038;8.078;2024-03-17T08:23:28;13.15;;;9.00;;
23490;SDS011;14683;50.038;8.078;2024-03-17T08:26:30;12.40;;;8.80;;
23490;SDS011;14683;50.038;8.078;2024-03-17T08:29:31;13.98;;;9.27;;
23490;SDS011;14683;50.038;8.078;2024-03-17T08:32:33;11.80;;;8.93;;
23490;SDS011;14683;50.038;8.078;2024-03-17T08:35:35;11.10;;;7.97;;
23490;SDS011;14683;50.038;8.078;2024-03-17T08:38:38;13.15;;;9.32;;
23490;SDS011;14683;50.038;8.078;2024-03-17T08:41:39;12.02;;;9.57;;
23490;SDS011;14683;50.038;8.078;2024-03-17T08:44:40;15.20;;;9.60;;
23490;SDS011;14683;50.038;8.078;2024-03-17T08:47:41;10.70;;;8.68;;
23490;SDS011;14683;50.038;8.078;2024-03-17T08:50:49;11.70;;;8.57;;
23490;SDS011;14683;50.038;8.078;2024-03-17T08:56:53;10.48;;;8.30;;
23490;SDS011;14683;50.038;8.078;2024-03-17T08:59:54;12.02;;;8.25;;
23490;SDS011;14683;50.038;8.078;2024-03-17T09:02:56;13.52;;;7.85;;
23490;SDS011;14683;50.038;8.078;2024-03-17T09:05:57;12.57;;;8.50;;
23490;SDS011;14683;50.038;8.078;2024-03-17T09:08:59;12.65;;;8.02;;
23490;SDS011;14683;50.038;8.078;2024-03-17T09:12:00;13.43;;;8.48;;
23490;SDS011;14683;50.038;8.078;2024-03-17T09:15:01;12.95;;;8.55;;
23490;SDS011;14683;50.038;8.078;2024-03-17T09:18:02;10.05;;;7.88;;
23490;SDS011;14683;50.038;8.078;2024-03-17T09:21:05;10.48;;;7.22;;
23490;SDS011;14683;50.038;8.078;2024-03-17T09:24:08;11.95;;;7.43;;
23490;SDS011;14683;50.038;8.078;2024-03-17T09:27:10;9.18;;;6.82;;
23490;SDS011;14683;50.038;8.078;2024-03-17T09:30:11;8.55;;;6.60;;
23490;SDS011;14683;50.038;8.078;2024-03-17T09:33:13;8.35;;;6.57;;
23490;SDS011;14683;50.038;8.078;2024-03-17T09:36:14;10.18;;;6.57;;
23490;SDS011;14683;50.038;8.078;2024-03-17T09:39:15;6.65;;;5.85;;
23490;SDS011;14683;50.038;8.078;2024-03-17T09:42:17;9.65;;;6.10;;
23490;SDS011;14683;50.038;8.078;2024-03-17T09:45:23;9.48;;;6.50;;
23490;SDS011;14683;50.038;8.078;2024-03-17T09:48:25;7.85;;;6.13;;
23490;SDS011;14683;50.038;8.078;2024-03-17T09:51:30;7.72;;;5.70;;
23490;SDS011;14683;50.038;8.078;2024-03-17T09:54:32;7.63;;;6.03;;
23490;SDS011;14683;50.038;8.078;2024-03-17T09:57:34;9.65;;;5.95;;
23490;SDS011;14683;50.038;8.078;2024-03-17T10:00:37;10.25;;;6.07;;
23490;SDS011;14683;50.038;8.078;2024-03-17T10:06:46;8.18;;;5.95;;
23490;SDS011;14683;50.038;8.078;2024-03-17T10:09:51;6.30;;;5.70;;
23490;SDS011;14683;50.038;8.078;2024-03-17T10:13:22;6.63;;;5.90;;
23490;SDS011;14683;50.038;8.078;2024-03-17T10:16:24;7.93;;;6.80;;
23490;SDS011;14683;50.038;8.078;2024-03-17T10:19:26;8.05;;;6.10;;
23490;SDS011;14683;50.038;8.078;2024-03-17T10:22:29;11.45;;;7.57;;
23490;SDS011;14683;50.038;8.078;2024-03-17T10:25:34;7.20;;;6.43;;
23490;SDS011;14683;50.038;8.078;2024-03-17T10:28:37;7.53;;;6.63;;
23490;SDS011;14683;50.038;8.078;2024-03-17T10:31:44;8.60;;;6.80;;
23490;SDS011;14683;50.038;8.078;2024-03-17T10:34:46;10.10;;;7.25;;
23490;SDS011;14683;50.038;8.078;2024-03-17T10:37:54;9.85;;;7.20;;
23490;SDS011;14683;50.038;8.078;2024-03-17T10:40:57;9.18;;;7.57;;
23490;SDS011;14683;50.038;8.078;2024-03-17T10:43:58;7.68;;;6.40;;
23490;SDS011;14683;50.038;8.078;2024-03-17T10:47:00;8.27;;;7.20;;
23490;SDS011;14683;50.038;8.078;2024-03-17T10:50:02;11.85;;;6.75;;
23490;SDS011;14683;50.038;8.078;2024-03-17T10:53:05;10.32;;;6.78;;
23490;SDS011;14683;50.038;8.078;2024-03-17T10:56:09;7.22;;;6.32;;
23490;SDS011;14683;50.038;8.078;2024-03-17T10:59:12;7.50;;;6.05;;
23490;SDS011;14683;50.038;8.078;2024-03-17T11:02:20;9.13;;;6.47;;
23490;SDS011;14683;50.038;8.078;2024-03-17T11:08:25;8.45;;;6.38;;
23490;SDS011;14683;50.038;8.078;2024-03-17T11:11:36;9.05;;;6.38;;
23490;SDS011;14683;50.038;8.078;2024-03-17T11:14:40;8.02;;;6.18;;
23490;SDS011;14683;50.038;8.078;2024-03-17T11:17:42;8.75;;;6.78;;
23490;SDS011;14683;50.038;8.078;2024-03-17T11:20:55;8.98;;;6.60;;
23490;SDS011;14683;50.038;8.078;2024-03-17T11:24:08;7.60;;;6.32;;
23490;SDS011;14683;50.038;8.078;2024-03-17T11:34:02;6.70;;;5.97;;
23490;SDS011;14683;50.038;8.078;2024-03-17T11:37:05;7.40;;;6.60;;
23490;SDS011;14683;50.038;8.078;2024-03-17T11:40:24;10.30;;;7.10;;
23490;SDS011;14683;50.038;8.078;2024-03-17T11:43:26;8.65;;;6.85;;
23490;SDS011;14683;50.038;8.078;2024-03-17T11:46:27;9.45;;;7.25;;
23490;SDS011;14683;50.038;8.078;2024-03-17T11:49:35;9.57;;;7.60;;
23490;SDS011;14683;50.038;8.078;2024-03-17T11:52:40;8.65;;;7.10;;
23490;SDS011;14683;50.038;8.078;2024-03-17T11:55:48;7.53;;;6.82;;
23490;SDS011;14683;50.038;8.078;2024-03-17T11:59:03;9.25;;;7.43;;
23490;SDS011;14683;50.038;8.078;2024-03-17T12:05:29;9.00;;;7.43;;
23490;SDS011;14683;50.038;8.078;2024-03-17T12:08:31;8.10;;;7.30;;
23490;SDS011;14683;50.038;8.078;2024-03-17T12:11:33;12.27;;;8.38;;
23490;SDS011;14683;50.038;8.078;2024-03-17T12:14:34;8.48;;;7.40;;
23490;SDS011;14683;50.038;8.078;2024-03-17T12:17:36;9.13;;;7.32;;
23490;SDS011;14683;50.038;8.078;2024-03-17T12:20:37;8.70;;;7.28;;
23490;SDS011;14683;50.038;8.078;2024-03-17T12:23:39;8.15;;;7.35;;
23490;SDS011;14683;50.038;8.078;2024-03-17T12:26:41;12.38;;;8.27;;
23490;SDS011;14683;50.038;8.078;2024-03-17T12:29:43;9.10;;;7.43;;
23490;SDS011;14683;50.038;8.078;2024-03-17T12:32:45;9.25;;;7.63;;
23490;SDS011;14683;50.038;8.078;2024-03-17T12:35:47;7.90;;;6.82;;
23490;SDS011;14683;50.038;8.078;2024-03-17T12:38:49;8.80;;;7.45;;
23490;SDS011;14683;50.038;8.078;2024-03-17T12:42:03;9.30;;;7.05;;
23490;SDS011;14683;50.038;8.078;2024-03-17T12:45:09;12.55;;;8.23;;
23490;SDS011;14683;50.038;8.078;2024-03-17T12:48:12;8.57;;;6.95;;
23490;SDS011;14683;50.038;8.078;2024-03-17T12:51:14;10.52;;;8.05;;
23490;SDS011;14683;50.038;8.078;2024-03-17T12:54:16;9.20;;;7.93;;
23490;SDS011;14683;50.038;8.078;2024-03-17T12:57:20;10.52;;;8.05;;
23490;SDS011;14683;50.038;8.078;2024-03-17T13:00:40;9.57;;;7.68;;
23490;SDS011;14683;50.038;8.078;2024-03-17T13:03:41;10.35;;;8.27;;
23490;SDS011;14683;50.038;8.078;2024-03-17T13:06:45;12.38;;;8.35;;
23490;SDS011;14683;50.038;8.078;2024-03-17T13:09:46;10.68;;;7.88;;
23490;SDS011;14683;50.038;8.078;2024-03-17T13:12:47;9.90;;;8.07;;
23490;SDS011;14683;50.038;8.078;2024-03-17T13:15:49;9.25;;;7.75;;
23490;SDS011;14683;50.038;8.078;2024-03-17T13:18:50;8.10;;;7.28;;
23490;SDS011;14683;50.038;8.078;2024-03-17T13:21:51;11.30;;;8.93;;
23490;SDS011;14683;50.038;8.078;2024-03-17T13:24:52;9.48;;;8.30;;
23490;SDS011;14683;50.038;8.078;2024-03-17T13:27:54;11.40;;;8.15;;
23490;SDS011;14683;50.038;8.078;2024-03-17T13:30:55;8.20;;;7.32;;
23490;SDS011;14683;50.038;8.078;2024-03-17T13:33:56;8.73;;;7.65;;
23490;SDS011;14683;50.038;8.078;2024-03-17T13:36:57;9.45;;;7.82;;
23490;SDS011;14683;50.038;8.078;2024-03-17T13:40:01;10.05;;;7.78;;
23490;SDS011;14683;50.038;8.078;2024-03-17T13:43:05;11.48;;;8.63;;
23490;SDS011;14683;50.038;8.078;2024-03-17T13:46:07;9.63;;;8.32;;
23490;SDS011;14683;50.038;8.078;2024-03-17T13:49:08;9.88;;;8.73;;
23490;SDS011;14683;50.038;8.078;2024-03-17T13:52:09;10.85;;;8.27;;
23490;SDS011;14683;50.038;8.078;2024-03-17T13:55:15;10.07;;;9.02;;
23490;SDS011;14683;50.038;8.078;2024-03-17T13:58:22;10.13;;;9.10;;
23490;SDS011;14683;50.038;8.078;2024-03-17T14:01:23;10.23;;;8.00;;
23490;SDS011;14683;50.038;8.078;2024-03-17T14:04:25;10.70;;;9.27;;
23490;SDS011;14683;50.038;8.078;2024-03-17T14:07:26;11.23;;;8.57;;
23490;SDS011;14683;50.038;8.078;2024-03-17T14:10:27;11.60;;;8.38;;
23490;SDS011;14683;50.038;8.078;2024-03-17T14:13:28;13.05;;;9.38;;
23490;SDS011;14683;50.038;8.078;2024-03-17T14:16:29;9.98;;;8.40;;
23490;SDS011;14683;50.038;8.078;2024-03-17T14:19:33;11.35;;;9.00;;
23490;SDS011;14683;50.038;8.078;2024-03-17T14:22:38;14.63;;;9.63;;
23490;SDS011;14683;50.038;8.078;2024-03-17T14:25:40;11.35;;;9.25;;
23490;SDS011;14683;50.038;8.078;2024-03-17T14:28:41;9.82;;;8.55;;
23490;SDS011;14683;50.038;8.078;2024-03-17T14:31:42;11.82;;;8.68;;
23490;SDS011;14683;50.038;8.078;2024-03-17T14:34:46;10.32;;;7.80;;
23490;SDS011;14683;50.038;8.078;2024-03-17T14:37:47;10.00;;;7.85;;
23490;SDS011;14683;50.038;8.078;2024-03-17T14:40:52;12.38;;;8.52;;
23490;SDS011;14683;50.038;8.078;2024-03-17T14:43:54;10.15;;;8.02;;
23490;SDS011;14683;50.038;8.078;2024-03-17T14:46:55;10.68;;;8.80;;
23490;SDS011;14683;50.038;8.078;2024-03-17T14:49:56;13.10;;;9.23;;
23490;SDS011;14683;50.038;8.078;2024-03-17T14:52:57;11.02;;;8.35;;
23490;SDS011;14683;50.038;8.078;2024-03-17T14:55:58;9.27;;;8.00;;
23490;SDS011;14683;50.038;8.078;2024-03-17T14:59:00;11.50;;;8.93;;
23490;SDS011;14683;50.038;8.078;2024-03-17T15:02:01;9.63;;;8.63;;
23490;SDS011;14683;50.038;8.078;2024-03-17T15:05:02;10.52;;;9.05;;
23490;SDS011;14683;50.038;8.078;2024-03-17T15:08:03;11.18;;;8.98;;
23490;SDS011;14683;50.038;8.078;2024-03-17T15:11:05;10.23;;;8.20;;
23490;SDS011;14683;50.038;8.078;2024-03-17T15:14:09;11.70;;;9.93;;
23490;SDS011;14683;50.038;8.078;2024-03-17T15:17:11;10.73;;;9.35;;
23490;SDS011;14683;50.038;8.078;2024-03-17T15:20:12;13.43;;;9.27;;
23490;SDS011;14683;50.038;8.078;2024-03-17T15:23:22;11.85;;;9.45;;
23490;SDS011;14683;50.038;8.078;2024-03-17T15:26:23;9.95;;;8.40;;
23490;SDS011;14683;50.038;8.078;2024-03-17T15:29:24;10.90;;;8.80;;
23490;SDS011;14683;50.038;8.078;2024-03-17T15:32:26;14.02;;;9.88;;
23490;SDS011;14683;50.038;8.078;2024-03-17T15:35:27;14.82;;;9.80;;
23490;SDS011;14683;50.038;8.078;2024-03-17T15:38:31;13.05;;;8.98;;
23490;SDS011;14683;50.038;8.078;2024-03-17T15:41:35;11.27;;;8.80;;
23490;SDS011;14683;50.038;8.078;2024-03-17T15:44:36;9.23;;;8.15;;
23490;SDS011;14683;50.038;8.078;2024-03-17T15:47:37;10.70;;;8.85;;
23490;SDS011;14683;50.038;8.078;2024-03-17T15:50:38;10.48;;;8.80;;
23490;SDS011;14683;50.038;8.078;2024-03-17T15:53:40;10.82;;;8.50;;
23490;SDS011;14683;50.038;8.078;2024-03-17T15:56:42;11.15;;;8.77;;
23490;SDS011;14683;50.038;8.078;2024-03-17T15:59:45;10.40;;;8.55;;
23490;SDS011;14683;50.038;8.078;2024-03-17T16:02:46;9.63;;;8.60;;
23490;SDS011;14683;50.038;8.078;2024-03-17T16:05:48;11.63;;;8.70;;
23490;SDS011;14683;50.038;8.078;2024-03-17T16:08:50;9.82;;;8.18;;
23490;SDS011;14683;50.038;8.078;2024-03-17T16:11:56;12.63;;;9.43;;
23490;SDS011;14683;50.038;8.078;2024-03-17T16:14:57;9.70;;;8.25;;
23490;SDS011;14683;50.038;8.078;2024-03-17T16:18:01;9.65;;;8.38;;
23490;SDS011;14683;50.038;8.078;2024-03-17T16:21:04;13.68;;;8.85;;
23490;SDS011;14683;50.038;8.078;2024-03-17T16:24:11;9.80;;;7.90;;
23490;SDS011;14683;50.038;8.078;2024-03-17T16:27:16;10.43;;;8.43;;
23490;SDS011;14683;50.038;8.078;2024-03-17T16:30:17;11.15;;;8.65;;
23490;SDS011;14683;50.038;8.078;2024-03-17T16:33:18;11.23;;;8.95;;
23490;SDS011;14683;50.038;8.078;2024-03-17T16:36:20;13.43;;;9.68;;
23490;SDS011;14683;50.038;8.078;2024-03-17T16:39:21;10.95;;;8.77;;
23490;SDS011;14683;50.038;8.078;2024-03-17T16:42:23;11.80;;;9.35;;
23490;SDS011;14683;50.038;8.078;2024-03-17T16:45:25;10.43;;;9.13;;
23490;SDS011;14683;50.038;8.078;2024-03-17T16:48:27;12.40;;;9.05;;
23490;SDS011;14683;50.038;8.078;2024-03-17T16:51:29;11.98;;;9.57;;
23490;SDS011;14683;50.038;8.078;2024-03-17T16:54:30;11.38;;;9.32;;
23490;SDS011;14683;50.038;8.078;2024-03-17T16:57:37;11.65;;;8.90;;
23490;SDS011;14683;50.038;8.078;2024-03-17T17:00:38;12.65;;;9.98;;
23490;SDS011;14683;50.038;8.078;2024-03-17T17:03:39;11.88;;;10.02;;
23490;SDS011;14683;50.038;8.078;2024-03-17T17:06:40;15.15;;;10.77;;
23490;SDS011;14683;50.038;8.078;2024-03-17T17:09:41;13.68;;;9.82;;
23490;SDS011;14683;50.038;8.078;2024-03-17T17:12:43;12.65;;;11.10;;
23490;SDS011;14683;50.038;8.078;2024-03-17T17:15:44;14.40;;;10.45;;
23490;SDS011;14683;50.038;8.078;2024-03-17T17:21:59;11.57;;;9.27;;
23490;SDS011;14683;50.038;8.078;2024-03-17T17:25:02;13.55;;;10.15;;
23490;SDS011;14683;50.038;8.078;2024-03-17T17:28:05;11.95;;;9.75;;
23490;SDS011;14683;50.038;8.078;2024-03-17T17:31:06;11.65;;;9.23;;
23490;SDS011;14683;50.038;8.078;2024-03-17T17:34:07;13.50;;;10.65;;
23490;SDS011;14683;50.038;8.078;2024-03-17T17:37:08;12.88;;;10.43;;
23490;SDS011;14683;50.038;8.078;2024-03-17T17:40:12;11.43;;;9.55;;
23490;SDS011;14683;50.038;8.078;2024-03-17T17:43:14;12.90;;;9.98;;
23490;SDS011;14683;50.038;8.078;2024-03-17T17:46:24;14.13;;;10.77;;
23490;SDS011;14683;50.038;8.078;2024-03-17T17:49:28;12.13;;;9.77;;
23490;SDS011;14683;50.038;8.078;2024-03-17T17:52:30;13.00;;;11.57;;
23490;SDS011;14683;50.038;8.078;2024-03-17T17:55:31;15.13;;;10.80;;
23490;SDS011;14683;50.038;8.078;2024-03-17T17:58:33;13.70;;;11.02;;
23490;SDS011;14683;50.038;8.078;2024-03-17T18:01:34;15.13;;;11.88;;
23490;SDS011;14683;50.038;8.078;2024-03-17T18:04:35;14.38;;;11.98;;
23490;SDS011;14683;50.038;8.078;2024-03-17T18:07:36;18.23;;;13.27;;
23490;SDS011;14683;50.038;8.078;2024-03-17T18:10:38;18.77;;;12.77;;
23490;SDS011;14683;50.038;8.078;2024-03-17T18:13:39;12.95;;;11.18;;
23490;SDS011;14683;50.038;8.078;2024-03-17T18:16:40;13.77;;;10.77;;
23490;SDS011;14683;50.038;8.078;2024-03-17T18:19:41;13.50;;;10.00;;
23490;SDS011;14683;50.038;8.078;2024-03-17T18:22:43;14.18;;;10.32;;
23490;SDS011;14683;50.038;8.078;2024-03-17T18:25:44;12.18;;;9.07;;
23490;SDS011;14683;50.038;8.078;2024-03-17T18:28:45;14.15;;;11.00;;
23490;SDS011;14683;50.038;8.078;2024-03-17T18:31:46;16.55;;;12.65;;
23490;SDS011;14683;50.038;8.078;2024-03-17T18:34:47;14.48;;;11.82;;
23490;SDS011;14683;50.038;8.078;2024-03-17T18:37:49;14.40;;;11.65;;
23490;SDS011;14683;50.038;8.078;2024-03-17T18:40:56;14.50;;;12.27;;
23490;SDS011;14683;50.038;8.078;2024-03-17T18:44:05;18.80;;;12.25;;
23490;SDS011;14683;50.038;8.078;2024-03-17T18:47:06;17.63;;;13.20;;
23490;SDS011;14683;50.038;8.078;2024-03-17T18:50:07;18.55;;;13.15;;
23490;SDS011;14683;50.038;8.078;2024-03-17T18:53:09;19.08;;;14.18;;
23490;SDS011;14683;50.038;8.078;2024-03-17T18:56:10;17.92;;;14.65;;
23490;SDS011;14683;50.038;8.078;2024-03-17T18:59:11;21.27;;;14.80;;
23490;SDS011;14683;50.038;8.078;2024-03-17T19:02:15;18.30;;;13.57;;
23490;SDS011;14683;50.038;8.078;2024-03-17T19:05:16;16.67;;;12.55;;
23490;SDS011;14683;50.038;8.078;2024-03-17T19:08:18;14.98;;;12.15;;
23490;SDS011;14683;50.038;8.078;2024-03-17T19:11:20;13.55;;;11.23;;
23490;SDS011;14683;50.038;8.078;2024-03-17T19:14:23;16.58;;;11.80;;
23490;SDS011;14683;50.038;8.078;2024-03-17T19:17:24;15.65;;;11.65;;
23490;SDS011;14683;50.038;8.078;2024-03-17T19:20:25;16.42;;;11.18;;
23490;SDS011;14683;50.038;8.078;2024-03-17T19:23:27;12.90;;;10.60;;
23490;SDS011;14683;50.038;8.078;2024-03-17T19:26:28;16.27;;;12.20;;
23490;SDS011;14683;50.038;8.078;2024-03-17T19:29:30;13.02;;;10.45;;
23490;SDS011;14683;50.038;8.078;2024-03-17T19:32:32;16.17;;;11.68;;
23490;SDS011;14683;50.038;8.078;2024-03-17T19:35:34;16.92;;;11.50;;
23490;SDS011;14683;50.038;8.078;2024-03-17T19:38:35;14.82;;;11.10;;
23490;SDS011;14683;50.038;8.078;2024-03-17T19:41:37;13.90;;;10.90;;
23490;SDS011;14683;50.038;8.078;2024-03-17T19:44:38;16.48;;;12.00;;
23490;SDS011;14683;50.038;8.078;2024-03-17T19:47:41;18.33;;;11.70;;
23490;SDS011;14683;50.038;8.078;2024-03-17T19:50:42;18.88;;;13.85;;
23490;SDS011;14683;50.038;8.078;2024-03-17T19:53:46;19.48;;;12.82;;
23490;SDS011;14683;50.038;8.078;2024-03-17T19:56:48;21.40;;;12.93;;
23490;SDS011;14683;50.038;8.078;2024-03-17T19:59:49;20.67;;;12.45;;
23490;SDS011;14683;50.038;8.078;2024-03-17T20:02:51;15.57;;;10.75;;
23490;SDS011;14683;50.038;8.078;2024-03-17T20:05:55;17.08;;;11.70;;
23490;SDS011;14683;50.038;8.078;2024-03-17T20:08:56;15.75;;;10.75;;
23490;SDS011;14683;50.038;8.078;2024-03-17T20:11:57;14.85;;;10.25;;
23490;SDS011;14683;50.038;8.078;2024-03-17T20:14:58;12.95;;;10.02;;
23490;SDS011;14683;50.038;8.078;2024-03-17T20:18:00;13.85;;;10.63;;
23490;SDS011;14683;50.038;8.078;2024-03-17T20:21:01;15.00;;;10.25;;
23490;SDS011;14683;50.038;8.078;2024-03-17T20:24:02;13.85;;;10.73;;
23490;SDS011;14683;50.038;8.078;2024-03-17T20:27:04;15.18;;;10.50;;
23490;SDS011;14683;50.038;8.078;2024-03-17T20:30:05;14.98;;;10.93;;
23490;SDS011;14683;50.038;8.078;2024-03-17T20:33:08;16.48;;;11.75;;
23490;SDS011;14683;50.038;8.078;2024-03-17T20:36:11;15.60;;;10.48;;
23490;SDS011;14683;50.038;8.078;2024-03-17T20:39:12;14.75;;;10.68;;
23490;SDS011;14683;50.038;8.078;2024-03-17T20:42:13;16.20;;;10.02;;
23490;SDS011;14683;50.038;8.078;2024-03-17T20:45:14;12.38;;;10.07;;
23490;SDS011;14683;50.038;8.078;2024-03-17T20:48:17;14.95;;;11.00;;
